sensor_id;sensor_type;location;lat;lon;timestamp;P1;durP1;ratioP1;P2;durP2;ratioP2
19205;SDS011;59358;52.134;5.596;2023-05-23T00:01:37;23.13;;;14.20;;
19205;SDS011;59358;52.134;5.596;2023-05-23T00:04:04;32.33;;;15.23;;
19205;SDS011;59358;52.134;5.596;2023-05-23T00:06:31;28.38;;;14.63;;
19205;SDS011;59358;52.134;5.596;2023-05-23T00:09:00;25.77;;;14.30;;
19205;SDS011;59358;52.134;5.596;2023-05-23T00:11:27;26.60;;;16.38;;
19205;SDS011;59358;52.134;5.596;2023-05-23T00:13:55;26.25;;;15.63;;
19205;SDS011;59358;52.134;5.596;2023-05-23T00:16:26;29.08;;;15.73;;
19205;SDS011;59358;52.134;5.596;2023-05-23T00:18:53;24.15;;;14.48;;
19205;SDS011;59358;52.134;5.596;2023-05-23T00:21:21;26.23;;;16.05;;
19205;SDS011;59358;52.134;5.596;2023-05-23T00:23:48;34.30;;;17.10;;
19205;SDS011;59358;52.134;5.596;2023-05-23T00:26:15;30.08;;;15.95;;
19205;SDS011;59358;52.134;5.596;2023-05-23T00:28:41;27.20;;;15.23;;
19205;SDS011;59358;52.134;5.596;2023-05-23T00:31:08;27.88;;;15.70;;
19205;SDS011;59358;52.134;5.596;2023-05-23T00:33:36;30.70;;;16.10;;
19205;SDS011;59358;52.134;5.596;2023-05-23T00:36:03;28.70;;;16.50;;
19205;SDS011;59358;52.134;5.596;2023-05-23T00:38:30;32.10;;;16.73;;
19205;SDS011;59358;52.134;5.596;2023-05-23T00:40:57;24.20;;;15.45;;
19205;SDS011;59358;52.134;5.596;2023-05-23T00:43:24;27.35;;;15.00;;
19205;SDS011;59358;52.134;5.596;2023-05-23T00:45:51;25.50;;;15.60;;
19205;SDS011;59358;52.134;5.596;2023-05-23T00:48:17;27.38;;;15.27;;
19205;SDS011;59358;52.134;5.596;2023-05-23T00:50:45;29.13;;;15.07;;
19205;SDS011;59358;52.134;5.596;2023-05-23T00:53:12;24.30;;;12.98;;
19205;SDS011;59358;52.134;5.596;2023-05-23T00:55:40;26.55;;;15.43;;
19205;SDS011;59358;52.134;5.596;2023-05-23T00:58:07;22.35;;;14.10;;
19205;SDS011;59358;52.134;5.596;2023-05-23T01:00:35;25.42;;;14.15;;
19205;SDS011;59358;52.134;5.596;2023-05-23T01:03:03;28.90;;;13.52;;
19205;SDS011;59358;52.134;5.596;2023-05-23T01:05:30;20.95;;;13.43;;
19205;SDS011;59358;52.134;5.596;2023-05-23T01:07:58;25.17;;;13.70;;
19205;SDS011;59358;52.134;5.596;2023-05-23T01:10:28;22.70;;;12.25;;
19205;SDS011;59358;52.134;5.596;2023-05-23T01:12:59;19.95;;;11.77;;
19205;SDS011;59358;52.134;5.596;2023-05-23T01:15:33;21.10;;;12.70;;
19205;SDS011;59358;52.134;5.596;2023-05-23T01:18:06;26.75;;;12.40;;
19205;SDS011;59358;52.134;5.596;2023-05-23T01:20:37;18.30;;;11.68;;
19205;SDS011;59358;52.134;5.596;2023-05-23T01:26:02;20.02;;;11.35;;
19205;SDS011;59358;52.134;5.596;2023-05-23T01:28:40;17.80;;;11.50;;
19205;SDS011;59358;52.134;5.596;2023-05-23T01:31:11;18.05;;;10.82;;
19205;SDS011;59358;52.134;5.596;2023-05-23T01:33:39;19.15;;;11.48;;
19205;SDS011;59358;52.134;5.596;2023-05-23T01:36:07;18.65;;;11.45;;
19205;SDS011;59358;52.134;5.596;2023-05-23T01:38:35;18.70;;;11.45;;
19205;SDS011;59358;52.134;5.596;2023-05-23T01:41:02;22.42;;;11.73;;
19205;SDS011;59358;52.134;5.596;2023-05-23T01:43:29;18.13;;;11.10;;
19205;SDS011;59358;52.134;5.596;2023-05-23T01:45:57;20.02;;;11.35;;
19205;SDS011;59358;52.134;5.596;2023-05-23T01:48:26;16.02;;;12.25;;
19205;SDS011;59358;52.134;5.596;2023-05-23T01:50:54;22.00;;;13.45;;
19205;SDS011;59358;52.134;5.596;2023-05-23T01:53:22;19.77;;;12.05;;
19205;SDS011;59358;52.134;5.596;2023-05-23T01:55:49;20.30;;;13.23;;
19205;SDS011;59358;52.134;5.596;2023-05-23T01:58:17;23.35;;;12.70;;
19205;SDS011;59358;52.134;5.596;2023-05-23T02:00:44;20.85;;;12.05;;
19205;SDS011;59358;52.134;5.596;2023-05-23T02:03:12;24.10;;;12.65;;
19205;SDS011;59358;52.134;5.596;2023-05-23T02:05:39;28.92;;;14.75;;
19205;SDS011;59358;52.134;5.596;2023-05-23T02:08:06;28.95;;;15.45;;
19205;SDS011;59358;52.134;5.596;2023-05-23T02:10:33;35.45;;;14.75;;
19205;SDS011;59358;52.134;5.596;2023-05-23T02:13:00;23.75;;;13.13;;
19205;SDS011;59358;52.134;5.596;2023-05-23T02:15:27;30.65;;;14.60;;
19205;SDS011;59358;52.134;5.596;2023-05-23T02:17:54;31.58;;;14.52;;
19205;SDS011;59358;52.134;5.596;2023-05-23T02:20:23;29.70;;;13.70;;
19205;SDS011;59358;52.134;5.596;2023-05-23T02:22:49;25.67;;;13.23;;
19205;SDS011;59358;52.134;5.596;2023-05-23T02:25:17;21.27;;;12.48;;
19205;SDS011;59358;52.134;5.596;2023-05-23T02:27:43;21.95;;;11.75;;
19205;SDS011;59358;52.134;5.596;2023-05-23T02:30:11;26.33;;;12.07;;
19205;SDS011;59358;52.134;5.596;2023-05-23T02:32:38;20.40;;;9.90;;
19205;SDS011;59358;52.134;5.596;2023-05-23T02:35:05;16.50;;;9.88;;
19205;SDS011;59358;52.134;5.596;2023-05-23T02:37:33;17.77;;;9.88;;
19205;SDS011;59358;52.134;5.596;2023-05-23T02:40:00;15.10;;;9.70;;
19205;SDS011;59358;52.134;5.596;2023-05-23T02:42:28;16.95;;;9.75;;
19205;SDS011;59358;52.134;5.596;2023-05-23T02:44:55;15.82;;;9.68;;
19205;SDS011;59358;52.134;5.596;2023-05-23T02:47:21;14.65;;;9.32;;
19205;SDS011;59358;52.134;5.596;2023-05-23T02:49:48;18.02;;;9.23;;
19205;SDS011;59358;52.134;5.596;2023-05-23T02:52:15;19.20;;;9.80;;
19205;SDS011;59358;52.134;5.596;2023-05-23T02:54:43;17.60;;;9.00;;
19205;SDS011;59358;52.134;5.596;2023-05-23T02:57:10;23.17;;;9.70;;
19205;SDS011;59358;52.134;5.596;2023-05-23T02:59:37;13.25;;;9.00;;
19205;SDS011;59358;52.134;5.596;2023-05-23T03:02:04;14.10;;;9.10;;
19205;SDS011;59358;52.134;5.596;2023-05-23T03:04:30;15.68;;;9.75;;
19205;SDS011;59358;52.134;5.596;2023-05-23T03:06:57;14.50;;;9.75;;
19205;SDS011;59358;52.134;5.596;2023-05-23T03:09:24;15.00;;;8.50;;
19205;SDS011;59358;52.134;5.596;2023-05-23T03:11:52;18.08;;;10.98;;
19205;SDS011;59358;52.134;5.596;2023-05-23T03:14:19;13.20;;;8.75;;
19205;SDS011;59358;52.134;5.596;2023-05-23T03:16:46;18.95;;;9.48;;
19205;SDS011;59358;52.134;5.596;2023-05-23T03:19:12;20.27;;;9.68;;
19205;SDS011;59358;52.134;5.596;2023-05-23T03:21:39;17.83;;;10.65;;
19205;SDS011;59358;52.134;5.596;2023-05-23T03:24:06;17.55;;;9.93;;
19205;SDS011;59358;52.134;5.596;2023-05-23T03:26:32;19.23;;;9.82;;
19205;SDS011;59358;52.134;5.596;2023-05-23T03:29:01;20.42;;;9.15;;
19205;SDS011;59358;52.134;5.596;2023-05-23T03:31:28;23.15;;;9.18;;
19205;SDS011;59358;52.134;5.596;2023-05-23T03:33:55;23.38;;;10.48;;
19205;SDS011;59358;52.134;5.596;2023-05-23T03:36:22;21.65;;;11.13;;
19205;SDS011;59358;52.134;5.596;2023-05-23T03:38:52;24.27;;;11.00;;
19205;SDS011;59358;52.134;5.596;2023-05-23T03:41:19;33.42;;;13.23;;
19205;SDS011;59358;52.134;5.596;2023-05-23T03:43:45;26.75;;;12.57;;
19205;SDS011;59358;52.134;5.596;2023-05-23T03:46:13;25.60;;;11.30;;
19205;SDS011;59358;52.134;5.596;2023-05-23T03:48:41;23.45;;;12.25;;
19205;SDS011;59358;52.134;5.596;2023-05-23T03:51:07;37.60;;;12.68;;
19205;SDS011;59358;52.134;5.596;2023-05-23T03:53:35;31.75;;;13.10;;
19205;SDS011;59358;52.134;5.596;2023-05-23T03:56:01;31.75;;;13.10;;
19205;SDS011;59358;52.134;5.596;2023-05-23T03:58:28;35.17;;;13.60;;
19205;SDS011;59358;52.134;5.596;2023-05-23T04:00:55;35.08;;;14.18;;
19205;SDS011;59358;52.134;5.596;2023-05-23T04:03:23;28.50;;;12.85;;
19205;SDS011;59358;52.134;5.596;2023-05-23T04:05:51;28.83;;;12.57;;
19205;SDS011;59358;52.134;5.596;2023-05-23T04:08:18;28.50;;;13.93;;
19205;SDS011;59358;52.134;5.596;2023-05-23T04:10:46;37.72;;;14.05;;
19205;SDS011;59358;52.134;5.596;2023-05-23T04:13:12;26.35;;;12.70;;
19205;SDS011;59358;52.134;5.596;2023-05-23T04:15:39;25.42;;;12.32;;
19205;SDS011;59358;52.134;5.596;2023-05-23T04:18:06;27.83;;;12.85;;
19205;SDS011;59358;52.134;5.596;2023-05-23T04:20:34;28.27;;;12.30;;
19205;SDS011;59358;52.134;5.596;2023-05-23T04:23:01;27.75;;;11.43;;
19205;SDS011;59358;52.134;5.596;2023-05-23T04:25:28;21.63;;;10.25;;
19205;SDS011;59358;52.134;5.596;2023-05-23T04:27:55;24.55;;;11.00;;
19205;SDS011;59358;52.134;5.596;2023-05-23T04:30:22;22.00;;;10.82;;
19205;SDS011;59358;52.134;5.596;2023-05-23T04:32:48;21.85;;;10.10;;
19205;SDS011;59358;52.134;5.596;2023-05-23T04:35:16;21.77;;;11.32;;
19205;SDS011;59358;52.134;5.596;2023-05-23T04:37:44;24.20;;;10.13;;
19205;SDS011;59358;52.134;5.596;2023-05-23T04:40:11;29.45;;;9.50;;
19205;SDS011;59358;52.134;5.596;2023-05-23T04:42:38;25.23;;;9.30;;
19205;SDS011;59358;52.134;5.596;2023-05-23T04:45:06;22.00;;;10.07;;
19205;SDS011;59358;52.134;5.596;2023-05-23T04:47:35;25.20;;;9.57;;
19205;SDS011;59358;52.134;5.596;2023-05-23T04:50:02;23.00;;;9.40;;
19205;SDS011;59358;52.134;5.596;2023-05-23T04:52:29;23.95;;;9.10;;
19205;SDS011;59358;52.134;5.596;2023-05-23T04:54:59;23.10;;;8.77;;
19205;SDS011;59358;52.134;5.596;2023-05-23T04:57:26;20.77;;;7.80;;
19205;SDS011;59358;52.134;5.596;2023-05-23T04:59:53;16.73;;;7.60;;
19205;SDS011;59358;52.134;5.596;2023-05-23T05:02:20;18.02;;;7.38;;
19205;SDS011;59358;52.134;5.596;2023-05-23T05:04:47;21.20;;;7.75;;
19205;SDS011;59358;52.134;5.596;2023-05-23T05:07:15;19.38;;;7.55;;
19205;SDS011;59358;52.134;5.596;2023-05-23T05:09:42;19.83;;;7.10;;
19205;SDS011;59358;52.134;5.596;2023-05-23T05:12:10;18.48;;;6.07;;
19205;SDS011;59358;52.134;5.596;2023-05-23T05:14:36;20.73;;;7.45;;
19205;SDS011;59358;52.134;5.596;2023-05-23T05:17:03;16.75;;;6.70;;
19205;SDS011;59358;52.134;5.596;2023-05-23T05:19:30;16.77;;;6.97;;
19205;SDS011;59358;52.134;5.596;2023-05-23T05:21:57;14.57;;;6.63;;
19205;SDS011;59358;52.134;5.596;2023-05-23T05:24:25;15.38;;;6.40;;
19205;SDS011;59358;52.134;5.596;2023-05-23T05:26:53;20.65;;;7.07;;
19205;SDS011;59358;52.134;5.596;2023-05-23T05:29:21;14.25;;;6.40;;
19205;SDS011;59358;52.134;5.596;2023-05-23T05:31:49;19.95;;;6.70;;
19205;SDS011;59358;52.134;5.596;2023-05-23T05:34:16;19.52;;;7.30;;
19205;SDS011;59358;52.134;5.596;2023-05-23T05:36:42;17.23;;;6.15;;
19205;SDS011;59358;52.134;5.596;2023-05-23T05:39:12;16.30;;;6.20;;
19205;SDS011;59358;52.134;5.596;2023-05-23T05:41:39;15.73;;;6.35;;
19205;SDS011;59358;52.134;5.596;2023-05-23T05:44:05;18.23;;;6.30;;
19205;SDS011;59358;52.134;5.596;2023-05-23T05:46:34;15.05;;;6.68;;
19205;SDS011;59358;52.134;5.596;2023-05-23T05:49:01;14.82;;;6.32;;
19205;SDS011;59358;52.134;5.596;2023-05-23T05:51:28;17.08;;;5.70;;
19205;SDS011;59358;52.134;5.596;2023-05-23T05:53:55;13.23;;;5.82;;
19205;SDS011;59358;52.134;5.596;2023-05-23T05:56:22;19.05;;;6.80;;
19205;SDS011;59358;52.134;5.596;2023-05-23T05:58:50;13.48;;;5.85;;
19205;SDS011;59358;52.134;5.596;2023-05-23T06:01:17;21.13;;;6.75;;
19205;SDS011;59358;52.134;5.596;2023-05-23T06:03:45;12.15;;;6.03;;
19205;SDS011;59358;52.134;5.596;2023-05-23T06:06:12;15.20;;;6.53;;
19205;SDS011;59358;52.134;5.596;2023-05-23T06:08:39;16.13;;;6.95;;
19205;SDS011;59358;52.134;5.596;2023-05-23T06:11:06;18.63;;;7.00;;
19205;SDS011;59358;52.134;5.596;2023-05-23T06:13:33;21.25;;;6.82;;
19205;SDS011;59358;52.134;5.596;2023-05-23T06:16:00;14.77;;;6.93;;
19205;SDS011;59358;52.134;5.596;2023-05-23T06:18:27;19.58;;;7.07;;
19205;SDS011;59358;52.134;5.596;2023-05-23T06:20:55;15.90;;;7.03;;
19205;SDS011;59358;52.134;5.596;2023-05-23T06:23:21;19.67;;;8.02;;
19205;SDS011;59358;52.134;5.596;2023-05-23T06:25:48;16.38;;;6.93;;
19205;SDS011;59358;52.134;5.596;2023-05-23T06:28:15;17.95;;;7.75;;
19205;SDS011;59358;52.134;5.596;2023-05-23T06:30:42;17.88;;;6.78;;
19205;SDS011;59358;52.134;5.596;2023-05-23T06:33:09;19.95;;;7.60;;
19205;SDS011;59358;52.134;5.596;2023-05-23T06:35:37;16.52;;;7.72;;
19205;SDS011;59358;52.134;5.596;2023-05-23T06:38:05;18.50;;;6.72;;
19205;SDS011;59358;52.134;5.596;2023-05-23T06:40:31;23.30;;;6.63;;
19205;SDS011;59358;52.134;5.596;2023-05-23T06:42:58;15.63;;;6.78;;
19205;SDS011;59358;52.134;5.596;2023-05-23T06:45:25;16.42;;;6.90;;
19205;SDS011;59358;52.134;5.596;2023-05-23T06:47:52;22.10;;;7.68;;
19205;SDS011;59358;52.134;5.596;2023-05-23T06:50:18;21.25;;;7.97;;
19205;SDS011;59358;52.134;5.596;2023-05-23T06:52:45;16.95;;;6.82;;
19205;SDS011;59358;52.134;5.596;2023-05-23T06:55:15;18.05;;;7.93;;
19205;SDS011;59358;52.134;5.596;2023-05-23T06:57:43;21.05;;;6.68;;
19205;SDS011;59358;52.134;5.596;2023-05-23T07:00:10;17.02;;;7.05;;
19205;SDS011;59358;52.134;5.596;2023-05-23T07:02:38;13.60;;;6.93;;
19205;SDS011;59358;52.134;5.596;2023-05-23T07:05:06;21.15;;;6.55;;
19205;SDS011;59358;52.134;5.596;2023-05-23T07:07:33;19.60;;;7.80;;
19205;SDS011;59358;52.134;5.596;2023-05-23T07:09:59;16.30;;;6.97;;
19205;SDS011;59358;52.134;5.596;2023-05-23T07:12:28;13.10;;;6.47;;
19205;SDS011;59358;52.134;5.596;2023-05-23T07:14:54;12.30;;;5.95;;
19205;SDS011;59358;52.134;5.596;2023-05-23T07:17:21;13.80;;;5.53;;
19205;SDS011;59358;52.134;5.596;2023-05-23T07:19:48;19.50;;;5.72;;
19205;SDS011;59358;52.134;5.596;2023-05-23T07:22:15;10.00;;;5.10;;
19205;SDS011;59358;52.134;5.596;2023-05-23T07:24:42;20.35;;;5.00;;
19205;SDS011;59358;52.134;5.596;2023-05-23T07:27:09;16.88;;;4.80;;
19205;SDS011;59358;52.134;5.596;2023-05-23T07:29:37;14.00;;;4.45;;
19205;SDS011;59358;52.134;5.596;2023-05-23T07:32:04;12.68;;;3.65;;
19205;SDS011;59358;52.134;5.596;2023-05-23T07:34:31;11.55;;;3.92;;
19205;SDS011;59358;52.134;5.596;2023-05-23T07:36:58;19.52;;;3.88;;
19205;SDS011;59358;52.134;5.596;2023-05-23T07:39:25;12.93;;;3.60;;
19205;SDS011;59358;52.134;5.596;2023-05-23T07:41:52;19.35;;;4.00;;
19205;SDS011;59358;52.134;5.596;2023-05-23T07:44:18;15.13;;;3.85;;
19205;SDS011;59358;52.134;5.596;2023-05-23T07:46:47;17.98;;;3.53;;
19205;SDS011;59358;52.134;5.596;2023-05-23T07:49:14;17.10;;;4.68;;
19205;SDS011;59358;52.134;5.596;2023-05-23T07:51:41;16.75;;;4.03;;
19205;SDS011;59358;52.134;5.596;2023-05-23T07:54:07;17.88;;;3.88;;
19205;SDS011;59358;52.134;5.596;2023-05-23T07:56:34;17.42;;;4.05;;
19205;SDS011;59358;52.134;5.596;2023-05-23T07:59:02;11.48;;;2.78;;
19205;SDS011;59358;52.134;5.596;2023-05-23T08:01:29;15.27;;;4.25;;
19205;SDS011;59358;52.134;5.596;2023-05-23T08:03:57;11.43;;;3.30;;
19205;SDS011;59358;52.134;5.596;2023-05-23T08:06:24;16.02;;;3.63;;
19205;SDS011;59358;52.134;5.596;2023-05-23T08:08:51;13.10;;;4.45;;
19205;SDS011;59358;52.134;5.596;2023-05-23T08:11:18;17.85;;;4.13;;
19205;SDS011;59358;52.134;5.596;2023-05-23T08:13:45;14.93;;;3.50;;
19205;SDS011;59358;52.134;5.596;2023-05-23T08:16:11;13.57;;;3.85;;
19205;SDS011;59358;52.134;5.596;2023-05-23T08:18:38;12.90;;;3.70;;
19205;SDS011;59358;52.134;5.596;2023-05-23T08:21:06;12.65;;;3.17;;
19205;SDS011;59358;52.134;5.596;2023-05-23T08:23:33;14.27;;;3.17;;
19205;SDS011;59358;52.134;5.596;2023-05-23T08:26:00;17.20;;;4.03;;
19205;SDS011;59358;52.134;5.596;2023-05-23T08:28:26;18.33;;;3.53;;
19205;SDS011;59358;52.134;5.596;2023-05-23T08:30:53;11.80;;;3.45;;
19205;SDS011;59358;52.134;5.596;2023-05-23T08:33:22;10.05;;;3.28;;
19205;SDS011;59358;52.134;5.596;2023-05-23T08:35:49;11.88;;;3.88;;
19205;SDS011;59358;52.134;5.596;2023-05-23T08:38:17;18.73;;;4.35;;
19205;SDS011;59358;52.134;5.596;2023-05-23T08:40:48;11.10;;;3.65;;
19205;SDS011;59358;52.134;5.596;2023-05-23T08:43:16;19.42;;;4.57;;
19205;SDS011;59358;52.134;5.596;2023-05-23T08:45:42;14.05;;;3.92;;
19205;SDS011;59358;52.134;5.596;2023-05-23T08:48:09;13.00;;;4.00;;
19205;SDS011;59358;52.134;5.596;2023-05-23T08:50:39;12.38;;;3.63;;
19205;SDS011;59358;52.134;5.596;2023-05-23T08:53:11;14.95;;;3.00;;
19205;SDS011;59358;52.134;5.596;2023-05-23T08:55:45;16.08;;;4.78;;
19205;SDS011;59358;52.134;5.596;2023-05-23T08:58:13;18.02;;;4.32;;
19205;SDS011;59358;52.134;5.596;2023-05-23T09:00:41;15.43;;;3.58;;
19205;SDS011;59358;52.134;5.596;2023-05-23T09:03:08;15.82;;;3.47;;
19205;SDS011;59358;52.134;5.596;2023-05-23T09:05:37;14.93;;;4.30;;
19205;SDS011;59358;52.134;5.596;2023-05-23T09:08:03;14.60;;;3.97;;
19205;SDS011;59358;52.134;5.596;2023-05-23T09:10:30;19.00;;;3.78;;
19205;SDS011;59358;52.134;5.596;2023-05-23T09:12:59;15.80;;;4.30;;
19205;SDS011;59358;52.134;5.596;2023-05-23T09:15:25;12.50;;;4.18;;
19205;SDS011;59358;52.134;5.596;2023-05-23T09:17:54;11.95;;;3.65;;
19205;SDS011;59358;52.134;5.596;2023-05-23T09:20:26;19.83;;;4.00;;
19205;SDS011;59358;52.134;5.596;2023-05-23T09:22:53;17.33;;;3.88;;
19205;SDS011;59358;52.134;5.596;2023-05-23T09:25:21;18.85;;;4.43;;
19205;SDS011;59358;52.134;5.596;2023-05-23T09:27:47;13.70;;;3.85;;
19205;SDS011;59358;52.134;5.596;2023-05-23T09:30:16;11.45;;;3.75;;
19205;SDS011;59358;52.134;5.596;2023-05-23T09:32:54;12.27;;;3.53;;
19205;SDS011;59358;52.134;5.596;2023-05-23T09:35:23;15.43;;;3.95;;
19205;SDS011;59358;52.134;5.596;2023-05-23T09:37:50;11.82;;;3.63;;
19205;SDS011;59358;52.134;5.596;2023-05-23T09:40:20;12.60;;;3.70;;
19205;SDS011;59358;52.134;5.596;2023-05-23T09:42:47;12.43;;;3.83;;
19205;SDS011;59358;52.134;5.596;2023-05-23T09:45:17;17.33;;;4.30;;
19205;SDS011;59358;52.134;5.596;2023-05-23T09:47:48;13.23;;;3.67;;
19205;SDS011;59358;52.134;5.596;2023-05-23T09:50:15;17.25;;;3.30;;
19205;SDS011;59358;52.134;5.596;2023-05-23T09:52:42;17.90;;;3.83;;
19205;SDS011;59358;52.134;5.596;2023-05-23T09:55:10;15.55;;;3.67;;
19205;SDS011;59358;52.134;5.596;2023-05-23T09:57:39;17.95;;;4.22;;
19205;SDS011;59358;52.134;5.596;2023-05-23T10:00:07;14.18;;;3.67;;
19205;SDS011;59358;52.134;5.596;2023-05-23T10:02:51;12.73;;;4.10;;
19205;SDS011;59358;52.134;5.596;2023-05-23T10:05:25;16.85;;;4.60;;
19205;SDS011;59358;52.134;5.596;2023-05-23T10:07:58;14.57;;;4.03;;
19205;SDS011;59358;52.134;5.596;2023-05-23T10:10:27;15.75;;;3.60;;
19205;SDS011;59358;52.134;5.596;2023-05-23T10:12:57;14.88;;;3.65;;
19205;SDS011;59358;52.134;5.596;2023-05-23T10:15:27;16.75;;;4.97;;
19205;SDS011;59358;52.134;5.596;2023-05-23T10:18:02;15.15;;;4.45;;
19205;SDS011;59358;52.134;5.596;2023-05-23T10:20:33;12.27;;;3.20;;
19205;SDS011;59358;52.134;5.596;2023-05-23T10:23:04;17.27;;;3.65;;
19205;SDS011;59358;52.134;5.596;2023-05-23T10:25:31;15.77;;;4.18;;
19205;SDS011;59358;52.134;5.596;2023-05-23T10:27:59;16.88;;;3.58;;
19205;SDS011;59358;52.134;5.596;2023-05-23T10:30:27;12.68;;;3.65;;
19205;SDS011;59358;52.134;5.596;2023-05-23T10:32:54;15.18;;;4.28;;
19205;SDS011;59358;52.134;5.596;2023-05-23T10:35:36;13.90;;;3.35;;
19205;SDS011;59358;52.134;5.596;2023-05-23T10:38:08;13.88;;;3.92;;
19205;SDS011;59358;52.134;5.596;2023-05-23T10:40:51;13.82;;;3.22;;
19205;SDS011;59358;52.134;5.596;2023-05-23T10:43:23;13.63;;;3.50;;
19205;SDS011;59358;52.134;5.596;2023-05-23T10:45:54;16.23;;;3.72;;
19205;SDS011;59358;52.134;5.596;2023-05-23T10:48:21;11.65;;;3.17;;
19205;SDS011;59358;52.134;5.596;2023-05-23T10:51:02;14.30;;;4.10;;
19205;SDS011;59358;52.134;5.596;2023-05-23T10:53:31;16.05;;;3.00;;
19205;SDS011;59358;52.134;5.596;2023-05-23T10:55:59;17.80;;;3.72;;
19205;SDS011;59358;52.134;5.596;2023-05-23T10:58:28;16.85;;;4.10;;
19205;SDS011;59358;52.134;5.596;2023-05-23T11:00:56;12.40;;;3.72;;
19205;SDS011;59358;52.134;5.596;2023-05-23T11:03:32;15.85;;;4.15;;
19205;SDS011;59358;52.134;5.596;2023-05-23T11:06:01;15.90;;;4.57;;
19205;SDS011;59358;52.134;5.596;2023-05-23T11:08:36;14.30;;;3.75;;
19205;SDS011;59358;52.134;5.596;2023-05-23T11:11:04;13.65;;;4.32;;
19205;SDS011;59358;52.134;5.596;2023-05-23T11:13:53;15.82;;;3.85;;
19205;SDS011;59358;52.134;5.596;2023-05-23T11:16:24;18.67;;;3.92;;
19205;SDS011;59358;52.134;5.596;2023-05-23T11:21:51;14.38;;;3.63;;
19205;SDS011;59358;52.134;5.596;2023-05-23T11:24:19;15.55;;;3.67;;
19205;SDS011;59358;52.134;5.596;2023-05-23T11:26:52;21.00;;;3.92;;
19205;SDS011;59358;52.134;5.596;2023-05-23T11:29:24;11.65;;;3.20;;
19205;SDS011;59358;52.134;5.596;2023-05-23T11:31:52;17.25;;;4.15;;
19205;SDS011;59358;52.134;5.596;2023-05-23T11:34:20;14.15;;;4.07;;
19205;SDS011;59358;52.134;5.596;2023-05-23T11:36:52;12.95;;;3.55;;
19205;SDS011;59358;52.134;5.596;2023-05-23T11:39:20;12.52;;;3.15;;
19205;SDS011;59358;52.134;5.596;2023-05-23T11:41:49;12.68;;;3.40;;
19205;SDS011;59358;52.134;5.596;2023-05-23T11:44:23;14.73;;;3.30;;
19205;SDS011;59358;52.134;5.596;2023-05-23T11:47:00;13.52;;;3.38;;
19205;SDS011;59358;52.134;5.596;2023-05-23T11:49:28;8.65;;;2.20;;
19205;SDS011;59358;52.134;5.596;2023-05-23T11:51:57;11.43;;;3.00;;
19205;SDS011;59358;52.134;5.596;2023-05-23T11:54:25;15.15;;;3.38;;
19205;SDS011;59358;52.134;5.596;2023-05-23T11:56:52;13.80;;;4.10;;
19205;SDS011;59358;52.134;5.596;2023-05-23T11:59:20;14.30;;;4.05;;
19205;SDS011;59358;52.134;5.596;2023-05-23T12:01:46;15.13;;;4.20;;
19205;SDS011;59358;52.134;5.596;2023-05-23T12:04:13;16.65;;;3.90;;
19205;SDS011;59358;52.134;5.596;2023-05-23T12:06:40;17.73;;;3.30;;
19205;SDS011;59358;52.134;5.596;2023-05-23T12:09:10;17.98;;;3.45;;
19205;SDS011;59358;52.134;5.596;2023-05-23T12:11:37;11.05;;;3.50;;
19205;SDS011;59358;52.134;5.596;2023-05-23T12:14:05;14.15;;;3.25;;
19205;SDS011;59358;52.134;5.596;2023-05-23T12:16:33;11.73;;;3.42;;
19205;SDS011;59358;52.134;5.596;2023-05-23T12:19:00;10.35;;;3.10;;
19205;SDS011;59358;52.134;5.596;2023-05-23T12:21:39;12.75;;;3.35;;
19205;SDS011;59358;52.134;5.596;2023-05-23T12:24:13;13.05;;;2.88;;
19205;SDS011;59358;52.134;5.596;2023-05-23T12:26:47;11.35;;;3.03;;
19205;SDS011;59358;52.134;5.596;2023-05-23T12:29:17;13.90;;;3.72;;
19205;SDS011;59358;52.134;5.596;2023-05-23T12:31:46;12.57;;;2.50;;
19205;SDS011;59358;52.134;5.596;2023-05-23T12:34:14;15.40;;;3.28;;
19205;SDS011;59358;52.134;5.596;2023-05-23T12:36:41;11.15;;;3.38;;
19205;SDS011;59358;52.134;5.596;2023-05-23T12:39:09;13.43;;;3.75;;
19205;SDS011;59358;52.134;5.596;2023-05-23T12:41:41;13.23;;;3.58;;
19205;SDS011;59358;52.134;5.596;2023-05-23T12:44:10;10.30;;;3.78;;
19205;SDS011;59358;52.134;5.596;2023-05-23T12:46:41;13.02;;;3.72;;
19205;SDS011;59358;52.134;5.596;2023-05-23T12:49:09;19.02;;;5.18;;
19205;SDS011;59358;52.134;5.596;2023-05-23T12:51:36;11.93;;;3.63;;
19205;SDS011;59358;52.134;5.596;2023-05-23T12:54:03;11.07;;;3.50;;
19205;SDS011;59358;52.134;5.596;2023-05-23T12:56:30;12.95;;;3.00;;
19205;SDS011;59358;52.134;5.596;2023-05-23T12:58:58;10.77;;;2.72;;
19205;SDS011;59358;52.134;5.596;2023-05-23T13:01:26;14.60;;;3.33;;
19205;SDS011;59358;52.134;5.596;2023-05-23T13:03:53;17.60;;;3.85;;
19205;SDS011;59358;52.134;5.596;2023-05-23T13:06:20;14.25;;;3.38;;
19205;SDS011;59358;52.134;5.596;2023-05-23T13:08:46;12.07;;;3.05;;
19205;SDS011;59358;52.134;5.596;2023-05-23T13:11:14;16.95;;;3.45;;
19205;SDS011;59358;52.134;5.596;2023-05-23T13:13:41;14.98;;;3.50;;
19205;SDS011;59358;52.134;5.596;2023-05-23T13:16:10;11.38;;;3.30;;
19205;SDS011;59358;52.134;5.596;2023-05-23T13:18:37;7.05;;;2.33;;
19205;SDS011;59358;52.134;5.596;2023-05-23T13:21:04;9.10;;;2.80;;
19205;SDS011;59358;52.134;5.596;2023-05-23T13:23:31;7.82;;;2.63;;
19205;SDS011;59358;52.134;5.596;2023-05-23T13:25:58;15.05;;;3.35;;
19205;SDS011;59358;52.134;5.596;2023-05-23T13:28:24;11.82;;;3.65;;
19205;SDS011;59358;52.134;5.596;2023-05-23T13:30:51;15.65;;;3.45;;
19205;SDS011;59358;52.134;5.596;2023-05-23T13:33:19;11.98;;;2.90;;
19205;SDS011;59358;52.134;5.596;2023-05-23T13:35:47;10.38;;;2.90;;
19205;SDS011;59358;52.134;5.596;2023-05-23T13:38:16;11.63;;;3.25;;
19205;SDS011;59358;52.134;5.596;2023-05-23T13:40:43;15.02;;;3.72;;
19205;SDS011;59358;52.134;5.596;2023-05-23T13:43:10;9.20;;;3.00;;
19205;SDS011;59358;52.134;5.596;2023-05-23T13:45:37;13.20;;;3.38;;
19205;SDS011;59358;52.134;5.596;2023-05-23T13:48:04;12.85;;;4.18;;
19205;SDS011;59358;52.134;5.596;2023-05-23T13:50:32;10.85;;;3.20;;
19205;SDS011;59358;52.134;5.596;2023-05-23T13:52:58;15.25;;;3.20;;
19205;SDS011;59358;52.134;5.596;2023-05-23T13:55:25;9.07;;;2.30;;
19205;SDS011;59358;52.134;5.596;2023-05-23T13:57:52;10.90;;;3.38;;
19205;SDS011;59358;52.134;5.596;2023-05-23T14:00:19;12.85;;;3.38;;
19205;SDS011;59358;52.134;5.596;2023-05-23T14:02:46;15.02;;;3.60;;
19205;SDS011;59358;52.134;5.596;2023-05-23T14:05:13;15.73;;;3.40;;
19205;SDS011;59358;52.134;5.596;2023-05-23T14:07:41;14.88;;;3.38;;
19205;SDS011;59358;52.134;5.596;2023-05-23T14:10:11;13.75;;;3.05;;
19205;SDS011;59358;52.134;5.596;2023-05-23T14:12:38;11.55;;;3.05;;
19205;SDS011;59358;52.134;5.596;2023-05-23T14:15:05;11.65;;;3.58;;
19205;SDS011;59358;52.134;5.596;2023-05-23T14:17:34;11.23;;;3.78;;
19205;SDS011;59358;52.134;5.596;2023-05-23T14:20:01;14.85;;;3.17;;
19205;SDS011;59358;52.134;5.596;2023-05-23T14:22:28;13.85;;;3.08;;
19205;SDS011;59358;52.134;5.596;2023-05-23T14:24:56;10.75;;;2.67;;
19205;SDS011;59358;52.134;5.596;2023-05-23T14:27:23;11.27;;;3.22;;
19205;SDS011;59358;52.134;5.596;2023-05-23T14:29:50;9.45;;;3.50;;
19205;SDS011;59358;52.134;5.596;2023-05-23T14:32:17;10.88;;;2.75;;
19205;SDS011;59358;52.134;5.596;2023-05-23T14:34:44;12.00;;;3.38;;
19205;SDS011;59358;52.134;5.596;2023-05-23T14:37:10;16.60;;;3.60;;
19205;SDS011;59358;52.134;5.596;2023-05-23T14:39:37;9.35;;;2.90;;
19205;SDS011;59358;52.134;5.596;2023-05-23T14:42:05;14.38;;;3.22;;